Impacts TAF Board
For situational awareness. Not to be used for flight planning purposes.
IDs:

KMIA - Miami Intl, FL, US

Issued at 1720 UTC 21 Sep 2021
Updated at 2030 UTC 21 Sep 2021
Potential Impact None Slight Moderate High
Time2011Z 21/21Z 21/22Z 21/23Z 22/00Z 22/01Z 22/02Z 22/03Z 22/04Z 22/05Z 22/06Z 22/07Z 22/08Z 22/09Z>>
Type OBS PRVL PRVL PRVL PRVL PRVL PRVL PRVL PRVL PRVL PRVL PRVL PRVL PRVL
VIS 10 >6 >6 >6 >6 >6 >6 >6 >6 >6 >6 >6 >6 >6
CIG 250 50 50 50 -- -- -- -- -- -- -- -- -- --
Cover OVC BKN BKN BKN SCT SCT SCT SCT SCT SCT SCT SCT SCT SCT
FltCat VFR VFR VFR VFR VFR VFR VFR VFR VFR VFR VFR VFR VFR VFR
WX -- VCTS VCTS VCTS -- -- -- -- -- -- -- -- -- --
WDir 110 100 100 100 VRB VRB VRB VRB VRB VRB VRB VRB VRB VRB
WSpd 5 10 10 10 5 5 5 5 5 5 5 5 5 5
WGst -- -- -- -- -- -- -- -- -- -- -- -- -- --
Raw TAF
KMIA 211720Z 2118/2224 10010KT P6SM VCTS SCT030CB BKN050
  FM220000 VRB05KT P6SM FEW025 SCT250
  FM221400 12007KT P6SM SCT030 SCT050
  FM221700 16010KT P6SM VCTS SCT030CB BKN050


Raw METAR
KMIA 212011Z 11005KT 10SM FEW020 SCT080 SCT160 OVC250 30/24 A3000 RMK AO2 LTG DSNT W-N CB DSNT W-N MOV NW T03000244 $
KMIA 211953Z COR 14005KT 10SM VCTS FEW020 SCT080 SCT160 OVC250 30/24 A2999 RMK AO2 LTG DSNT W-NE TSB04E13B18 SLP154 TS MOV NW CB DSNT W-N MOV NW T03000239 $
KMIA 211921Z 13006KT 10SM TS FEW021CB SCT080 BKN160 BKN250 30/25 A3000 RMK AO2 LTG DSNT NE AND W TSB04E13B18 OCNL LTGCG SW-W TS SW-W MOV NE CB DSNT NW-NE MOV NW T03000250 $
KMIA 211913Z 12007KT 10SM FEW021CB SCT080 BKN160 BKN250 30/25 A3000 RMK AO2 LTG DSNT W TSB04E13 TS DSIPTD CB SW-W AND DSNT NW-NE MOV NW T03000250 $
KMIA 211853Z 12006KT 10SM TS FEW021CB SCT055 SCT080 BKN160 OVC250 30/23 A3000 RMK AO2 LTG DSNT W TSB46 SLP159 OCNL LTGICCG NE TS NE MOV NW CB W-NW MOV NW T03000233 $
KMIA 211846Z 13005KT 10SM TS FEW021CB SCT055 SCT080 BKN160 OVC250 30/23 A3000 RMK AO2 LTG DSNT W TSB46 OCNL LTGICCG NE TS NE MOV NW CB W-NW MOV NW T03000228 $
KMIA 211833Z 12005KT 10SM VCTS SCT024CB BKN055 BKN080 BKN160 OVC250 29/23 A3000 RMK AO2 CB NE-E AND W MOV NW T02940233 $
KMIA 211753Z 11006KT 10SM SCT027CB BKN060 BKN180 OVC250 31/24 A3001 RMK AO2 SLP162 CB E-S MOV NW T03060244 10311 20272 58013 $

METAR Board
Radar Display
Forecast Discussion
For situational awareness. Not to be used for flight planning purposes.